Aeroporto :
LOGIN :

Iscrizione | Disclaimer

   EN    FR    IT 

 










Sommario :    VFR   VFR Marginale   IFR   IFR Intensivo   IFR Molto Intensivo
Visibilità : 
Base nubi : 
>= 8 km
>= 3000ft
5 / 8 km
1000 / 3000 ft
1500m / 5 km
500 / 1000 ft
800 / 1500m
200 / 500 ft
< 800m
< 200 ft
Simboli :   Temporali  Nebbia  Neve Forte  Precipitazioni Forti  Vento > 20 kt
SIGMETs :   Varie  Temporali  Ghiacco  Turbolenza  Onda orograficha  Ceneri Vulcaniche






- Altitudine del aeroporto : 34 ft
- Codice IATA : BLK


EGNH - Blackpool

ULTIMO METAR :
  • 291650Z VRB02KT 9999 FEW020 SCT048 14/09 Q1014

METARs OBSOLETI :
  • 291620Z VRB02KT 9999 FEW035 15/09 Q1014
  • 291550Z 28004KT 240V310 9999 FEW020 15/10 Q1014
  • 291520Z 26004KT 210V320 9999 FEW020 15/10 Q1015
  • 291450Z 27005KT 210V310 9999 FEW016 15/11 Q1015
  • 291420Z 26006KT 9999 FEW020 15/10 Q1015

TAF TAF EGNH
Valido dal 29 a 15 ore il 29 a 20 ore UTC


291402Z 2915/2920 25004KT 9999 FEW020
ATIS : +44 1253 343 434 (x8315)



MetMap, La meteo Aeronautica in un colpo d'occhio ! - Copyright ORBIFLY Dicembre 2007 - Disclaimer

ORBIFLY MET'MAP TEAM :

Programmazione e sviluppo : Alexandra Zaïnal
Concezione : Baudouin d'Aumeries
Aiuto per la programmazione : Marc-Olivier Méhu
Supporto tecnico e logistico : Manuel Goepfert
Aiuto per la traduzione : Arnaldo La Scala

Contatto : metmap@orbifly.com




FONTI E CREDITI :

   NOAA